Time;durP1;ratioP1;P1;durP2;ratioP2;P2;SDS_P1;SDS_P2;PMS_P1;PMS_P2;Temp;Humidity;BMP_temperature;BMP_pressure;BME280_temperature;BME280_humidity;BME280_pressure;Samples;Min_cycle;Max_cycle;Signal;HPM_P1;HPM_P2
2024/04/23 00:00:12;;;;;;;10.20;8.50;;;;;;;7.38;100.00;100765.48;87498;270;138039;-78
2024/04/23 00:02:13;;;;;;;10.00;8.70;;;;;;;7.41;100.00;100764.64;87634;270;24158;-78
2024/04/23 00:04:13;;;;;;;10.50;9.10;;;;;;;7.45;100.00;100765.10;87488;270;137103;-77
2024/04/23 00:06:14;;;;;;;9.80;8.60;;;;;;;7.49;100.00;100762.90;87581;270;22578;-78
2024/04/23 00:08:15;;;;;;;12.50;9.60;;;;;;;7.54;100.00;100764.01;87465;274;137440;-80
2024/04/23 00:10:15;;;;;;;12.00;10.60;;;;;;;7.59;100.00;100762.95;87635;274;24401;-78
2024/04/23 00:12:16;;;;;;;11.90;10.10;;;;;;;7.65;100.00;100756.46;87505;266;137899;-78
2024/04/23 00:14:17;;;;;;;11.70;10.40;;;;;;;7.72;100.00;100757.52;87593;266;22571;-78
2024/04/23 00:16:18;;;;;;;13.50;10.50;;;;;;;7.77;100.00;100757.89;87479;270;138445;-79
2024/04/23 00:18:19;;;;;;;13.40;11.10;;;;;;;7.84;100.00;100755.75;87626;278;22549;-78
2024/04/23 00:20:19;;;;;;;13.30;11.70;;;;;;;7.89;100.00;100757.77;87544;270;138503;-78
2024/04/23 00:22:20;;;;;;;15.10;10.50;;;;;;;7.93;100.00;100764.35;87682;273;24668;-79
2024/04/23 00:24:21;;;;;;;14.60;11.30;;;;;;;7.96;100.00;100765.46;87516;266;138257;-79
2024/04/23 00:26:21;;;;;;;12.40;9.70;;;;;;;7.98;100.00;100760.61;87822;274;22596;-80
2024/04/23 00:28:22;;;;;;;12.90;9.90;;;;;;;8.02;100.00;100762.77;87481;266;138922;-77
2024/04/23 00:30:22;;;;;;;13.70;11.20;;;;;;;8.02;100.00;100763.85;87859;268;22710;-78
2024/04/23 00:32:23;;;;;;;14.50;12.10;;;;;;;8.02;100.00;100759.41;89506;266;137545;-76
2024/04/23 00:34:24;;;;;;;12.90;11.60;;;;;;;8.04;100.00;100759.14;90070;267;22559;-78
2024/04/23 00:36:25;;;;;;;17.30;13.00;;;;;;;8.06;100.00;100760.08;89651;273;138288;-77
2024/04/23 00:38:25;;;;;;;14.70;11.80;;;;;;;8.07;100.00;100762.57;89855;265;25208;-77
2024/04/23 00:40:30;;;;;;;12.50;11.00;;;;;;;8.08;100.00;100764.92;89162;273;138871;-78
2024/04/23 00:42:30;;;;;;;18.40;12.50;;;;;;;8.10;100.00;100763.01;88957;268;24914;-76
2024/04/23 00:44:31;;;;;;;13.70;12.20;;;;;;;8.12;100.00;100762.05;88664;266;136871;-77
2024/04/23 00:46:36;;;;;;;13.60;11.40;;;;;;;8.14;100.00;100764.31;88448;275;22534;-77
2024/04/23 00:48:37;;;;;;;16.50;12.20;;;;;;;8.16;100.00;100762.33;88207;268;136720;-79
2024/04/23 00:50:39;;;;;;;14.10;12.40;;;;;;;8.18;100.00;100765.09;88581;278;22565;-77
2024/04/23 00:52:40;;;;;;;11.10;10.00;;;;;;;8.19;100.00;100765.00;88727;264;136735;-79
2024/04/23 00:54:41;;;;;;;13.60;10.60;;;;;;;8.21;100.00;100763.27;88843;273;22518;-76
2024/04/23 00:56:42;;;;;;;13.00;11.10;;;;;;;8.21;100.00;100761.64;88749;265;137191;-77
2024/04/23 00:58:43;;;;;;;11.60;10.40;;;;;;;8.22;100.00;100762.61;88924;267;22638;-77
2024/04/23 01:00:44;;;;;;;13.70;11.50;;;;;;;8.23;100.00;100764.58;88239;278;136756;-76
2024/04/23 01:02:45;;;;;;;12.60;11.40;;;;;;;8.26;100.00;100765.73;88002;273;24046;-78
2024/04/23 01:04:46;;;;;;;13.10;11.70;;;;;;;8.29;100.00;100767.86;87872;274;137070;-77
2024/04/23 01:06:50;;;;;;;12.80;11.50;;;;;;;8.31;100.00;100767.31;87997;278;22565;-77
2024/04/23 01:08:50;;;;;;;14.70;12.60;;;;;;;8.34;100.00;100770.50;87819;267;137186;-75
2024/04/23 01:10:51;;;;;;;14.60;12.10;;;;;;;8.37;100.00;100766.48;87430;271;22539;-78
2024/04/23 01:12:52;;;;;;;13.40;11.70;;;;;;;8.37;100.00;100766.66;87432;270;137252;-79
2024/04/23 01:14:53;;;;;;;14.60;11.70;;;;;;;8.38;100.00;100766.39;87653;275;25130;-80
2024/04/23 01:16:54;;;;;;;17.30;14.20;;;;;;;8.37;100.00;100768.70;87578;266;138087;-82
2024/04/23 01:18:56;;;;;;;14.70;13.10;;;;;;;8.38;100.00;100768.48;87664;277;22591;-81
2024/04/23 01:20:59;;;;;;;15.60;14.00;;;;;;;8.38;100.00;100770.27;87603;270;138411;-79
2024/04/23 01:23:27;;;;;;;13.40;12.00;;;;;;;8.39;100.00;100772.48;87443;271;22510;-78
2024/04/23 01:25:29;;;;;;;12.60;11.30;;;;;;;8.40;100.00;100775.93;87307;270;137330;-78
2024/04/23 01:27:30;;;;;;;13.70;12.00;;;;;;;8.40;100.00;100776.46;87329;270;22555;-78
2024/04/23 01:29:31;;;;;;;11.90;10.80;;;;;;;8.39;100.00;100776.66;87260;265;137311;-77
2024/04/23 01:31:33;;;;;;;14.30;12.60;;;;;;;8.39;100.00;100775.70;87411;268;22557;-79
2024/04/23 01:33:37;;;;;;;15.20;12.10;;;;;;;8.39;100.00;100778.31;87408;265;137157;-79
2024/04/23 01:35:38;;;;;;;15.60;12.20;;;;;;;8.39;100.00;100777.09;87487;270;25028;-80
2024/04/23 01:37:42;;;;;;;14.00;11.70;;;;;;;8.38;100.00;100775.86;87526;269;137315;-78
2024/04/23 01:39:44;;;;;;;14.50;12.90;;;;;;;8.39;100.00;100776.55;87728;266;22577;-78
2024/04/23 01:41:45;;;;;;;14.20;12.30;;;;;;;8.39;100.00;100778.26;87426;278;137956;-78
2024/04/23 01:43:46;;;;;;;13.90;12.40;;;;;;;8.41;100.00;100778.66;87554;270;22563;-78
2024/04/23 01:45:47;;;;;;;11.50;10.30;;;;;;;8.42;100.00;100779.64;87553;277;138111;-79
2024/04/23 01:47:49;;;;;;;13.20;10.40;;;;;;;8.44;100.00;100783.80;86639;274;924315;-79
2024/04/23 01:49:51;;;;;;;13.10;10.40;;;;;;;8.47;100.00;100782.88;87652;267;137565;-79
2024/04/23 01:51:52;;;;;;;12.60;11.30;;;;;;;8.48;100.00;100785.40;87620;278;25277;-78
2024/04/23 01:53:52;;;;;;;15.20;11.80;;;;;;;8.49;100.00;100786.74;87461;266;137990;-79
2024/04/23 01:55:53;;;;;;;14.00;11.30;;;;;;;8.50;100.00;100789.42;87556;270;22575;-79
2024/04/23 01:57:54;;;;;;;13.00;11.60;;;;;;;8.51;100.00;100791.42;87493;273;137907;-78
2024/04/23 02:00:01;;;;;;;12.90;11.60;;;;;;;8.51;100.00;100796.18;87519;278;22689;-78
2024/04/23 02:02:02;;;;;;;13.90;12.50;;;;;;;8.52;100.00;100795.38;87267;275;138949;-76
2024/04/23 02:04:05;;;;;;;13.70;12.40;;;;;;;8.53;100.00;100798.33;87053;268;137861;-76
2024/04/23 02:06:07;;;;;;;14.00;12.30;;;;;;;8.53;100.00;100801.67;87578;268;24143;-77
2024/04/23 02:08:07;;;;;;;15.00;13.10;;;;;;;8.54;100.00;100804.08;87214;270;137230;-77
2024/04/23 02:10:08;;;;;;;16.30;13.30;;;;;;;8.52;100.00;100806.13;87335;270;25098;-79
2024/04/23 02:12:14;;;;;;;19.70;14.20;;;;;;;8.52;100.00;100809.59;87380;272;137059;-77
2024/04/23 02:14:14;;;;;;;13.80;12.30;;;;;;;8.51;100.00;100812.50;87620;270;22575;-77
2024/04/23 02:16:15;;;;;;;13.70;12.20;;;;;;;8.52;100.00;100813.44;87487;271;138399;-79
2024/04/23 02:18:15;;;;;;;13.20;11.80;;;;;;;8.54;100.00;100814.34;87446;266;22555;-77
2024/04/23 02:20:16;;;;;;;14.30;11.80;;;;;;;8.56;100.00;100819.36;87316;267;137470;-78
2024/04/23 02:22:19;;;;;;;14.20;12.70;;;;;;;8.57;100.00;100822.31;87573;271;22590;-79
2024/04/23 02:24:20;;;;;;;13.80;12.20;;;;;;;8.57;100.00;100825.55;87589;266;137342;-78
2024/04/23 02:26:20;;;;;;;16.10;12.60;;;;;;;8.56;100.00;100824.17;87700;272;25118;-78
2024/04/23 02:28:21;;;;;;;12.80;10.90;;;;;;;8.59;100.00;100831.00;87819;278;138763;-79
2024/04/23 02:30:22;;;;;;;15.00;12.20;;;;;;;8.62;100.00;100834.21;88173;262;22558;-77
2024/04/23 02:32:23;;;;;;;14.90;12.30;;;;;;;8.63;100.00;100837.31;88329;270;138434;-78
2024/04/23 02:34:23;;;;;;;14.20;12.40;;;;;;;8.64;100.00;100835.05;88430;270;22665;-77
2024/04/23 02:36:24;;;;;;;15.20;13.70;;;;;;;8.64;100.00;100837.48;87599;271;138609;-79
2024/04/23 02:38:25;;;;;;;12.90;11.60;;;;;;;8.62;100.00;100835.91;87794;267;23923;-77
2024/04/23 02:40:25;;;;;;;12.10;11.00;;;;;;;8.54;100.00;100836.27;88001;270;136760;-78
2024/04/23 02:42:41;;;;;;;14.30;10.80;;;;;;;8.48;100.00;100841.20;87976;273;22578;-77
2024/04/23 02:44:41;;;;;;;11.00;10.00;;;;;;;8.44;100.00;100843.94;87646;270;137054;-78
2024/04/23 02:46:43;;;;;;;11.60;9.40;;;;;;;8.39;100.00;100846.79;87740;278;22843;-78
2024/04/23 02:48:43;;;;;;;10.10;8.90;;;;;;;8.37;100.00;100847.88;87649;270;136855;-78
2024/04/23 02:50:44;;;;;;;12.50;9.70;;;;;;;8.38;100.00;100847.31;87679;276;25142;-78
2024/04/23 02:52:45;;;;;;;9.10;8.30;;;;;;;8.39;100.00;100849.64;87548;270;136942;-78
2024/04/23 02:54:45;;;;;;;10.60;8.60;;;;;;;8.41;100.00;100850.02;87552;274;24196;-77
2024/04/23 02:56:48;;;;;;;10.20;9.20;;;;;;;8.42;100.00;100851.15;87674;270;138153;-78
2024/04/23 02:58:49;;;;;;;12.40;9.30;;;;;;;8.42;100.00;100852.93;88058;262;22630;-76
2024/04/23 03:00:49;;;;;;;8.80;8.00;;;;;;;8.41;100.00;100851.45;87898;274;138214;-77
2024/04/23 03:02:50;;;;;;;9.50;8.70;;;;;;;8.37;100.00;100850.70;87667;277;22548;-77
2024/04/23 03:04:51;;;;;;;9.20;8.30;;;;;;;8.32;100.00;100852.31;87668;273;136868;-78
2024/04/23 03:06:51;;;;;;;9.30;8.00;;;;;;;8.28;100.00;100855.48;87719;271;22565;-78
2024/04/23 03:08:52;;;;;;;9.70;8.90;;;;;;;8.24;100.00;100855.34;87655;271;136861;-78
2024/04/23 03:10:53;;;;;;;9.30;8.10;;;;;;;8.20;100.00;100861.63;87653;279;22620;-80
2024/04/23 03:12:53;;;;;;;8.40;7.30;;;;;;;8.16;100.00;100863.00;87717;262;137053;-78
2024/04/23 03:14:54;;;;;;;8.20;7.50;;;;;;;8.14;100.00;100867.31;87738;277;25326;-79
2024/04/23 03:16:55;;;;;;;7.50;6.90;;;;;;;8.13;100.00;100864.61;87679;279;138180;-78
2024/04/23 03:18:56;;;;;;;10.40;8.10;;;;;;;8.14;100.00;100863.66;87840;266;22563;-77
2024/04/23 03:20:56;;;;;;;7.50;7.00;;;;;;;8.14;100.00;100865.73;87732;274;137926;-80
2024/04/23 03:22:57;;;;;;;8.10;7.10;;;;;;;8.16;100.00;100867.20;87770;275;25184;-77
2024/04/23 03:24:58;;;;;;;7.40;6.70;;;;;;;8.16;100.00;100868.39;87808;270;137379;-80
2024/04/23 03:26:59;;;;;;;7.60;6.80;;;;;;;8.16;100.00;100864.46;87781;270;25028;-78
2024/04/23 03:29:00;;;;;;;7.30;6.60;;;;;;;8.15;100.00;100864.55;87709;266;136663;-79
2024/04/23 03:31:00;;;;;;;8.80;7.70;;;;;;;8.15;100.00;100864.72;87830;274;22837;-79
2024/04/23 03:33:01;;;;;;;8.90;8.00;;;;;;;8.15;100.00;100867.94;87552;267;136646;-77
2024/04/23 03:35:02;;;;;;;7.90;7.10;;;;;;;8.14;100.00;100868.21;87581;270;25248;-79
2024/04/23 03:37:02;;;;;;;8.80;7.10;;;;;;;8.14;100.00;100873.02;87502;271;138481;-77
2024/04/23 03:39:03;;;;;;;7.90;7.10;;;;;;;8.11;100.00;100871.15;87678;278;25194;-79
2024/04/23 03:41:04;;;;;;;9.20;7.50;;;;;;;8.12;100.00;100874.48;87544;266;136913;-77
2024/04/23 03:43:05;;;;;;;8.20;7.30;;;;;;;8.13;100.00;100875.38;87505;278;26210;-78
2024/04/23 03:45:06;;;;;;;6.80;6.30;;;;;;;8.13;100.00;100877.39;87550;266;137913;-78
2024/04/23 03:47:10;;;;;;;7.10;6.10;;;;;;;8.10;100.00;100880.10;87897;267;22588;-76
2024/04/23 03:49:13;;;;;;;7.00;6.40;;;;;;;8.08;100.00;100884.63;87624;269;136930;-78
2024/04/23 03:51:14;;;;;;;6.90;6.30;;;;;;;8.06;100.00;100886.20;87648;263;23721;-80
2024/04/23 03:53:15;;;;;;;6.40;5.90;;;;;;;8.06;100.00;100888.16;87657;266;136711;-79
2024/04/23 03:55:15;;;;;;;5.80;5.40;;;;;;;8.05;100.00;100889.34;87850;270;22568;-75
2024/04/23 03:57:16;;;;;;;6.10;5.50;;;;;;;8.05;100.00;100888.08;87863;274;136817;-81
2024/04/23 03:59:17;;;;;;;6.70;6.10;;;;;;;8.04;100.00;100894.60;87582;272;22583;-78
2024/04/23 04:01:18;;;;;;;5.80;5.30;;;;;;;8.02;100.00;100895.86;87518;274;136723;-78
2024/04/23 04:07:57;;;;;;;7.20;6.50;;;;;;;7.98;100.00;100906.28;87742;266;22640;-78
2024/04/23 04:09:57;;;;;;;7.70;5.90;;;;;;;7.99;100.00;100905.30;87828;271;136809;-79
2024/04/23 04:11:58;;;;;;;6.40;5.80;;;;;;;8.01;100.00;100907.80;88101;270;22558;-76
2024/04/23 04:13:59;;;;;;;7.10;6.50;;;;;;;8.02;100.00;100910.36;87882;266;137841;-78
2024/04/23 04:16:00;;;;;;;7.20;6.50;;;;;;;8.03;100.00;100912.79;88055;276;22587;-78
2024/04/23 04:18:01;;;;;;;8.70;6.00;;;;;;;8.02;100.00;100912.28;87835;270;136213;-82
2024/04/23 04:20:02;;;;;;;8.80;6.20;;;;;;;8.01;100.00;100915.23;87819;275;24178;-82
2024/04/23 04:22:03;;;;;;;6.10;5.60;;;;;;;8.01;100.00;100914.91;87742;271;22554;-80
2024/04/23 04:24:04;;;;;;;7.30;6.70;;;;;;;8.00;100.00;100917.65;87307;281;136996;-80
2024/04/23 04:26:07;;;;;;;7.10;5.70;;;;;;;8.01;100.00;100917.06;87696;273;22620;-80
2024/04/23 04:28:08;;;;;;;7.20;6.60;;;;;;;7.99;100.00;100917.58;87584;278;136981;-76
2024/04/23 04:30:09;;;;;;;7.10;5.60;;;;;;;7.97;100.00;100916.70;87388;278;25078;-78
2024/04/23 04:32:10;;;;;;;5.90;5.50;;;;;;;7.97;100.00;100916.01;87534;270;137383;-76
2024/04/23 04:34:11;;;;;;;6.40;5.80;;;;;;;7.97;100.00;100918.13;87520;273;22571;-77
2024/04/23 04:36:11;;;;;;;5.50;5.10;;;;;;;7.96;100.00;100920.61;87520;274;137824;-77
2024/04/23 04:38:12;;;;;;;5.80;5.30;;;;;;;7.99;100.00;100925.54;87665;266;22524;-77
2024/04/23 04:40:13;;;;;;;5.30;4.80;;;;;;;8.00;100.00;100929.64;87209;266;138747;-77
2024/04/23 04:42:14;;;;;;;5.60;5.00;;;;;;;8.03;100.00;100931.30;87612;270;22550;-77
2024/04/23 04:44:15;;;;;;;6.10;4.60;;;;;;;8.06;100.00;100932.25;87541;273;137511;-75
2024/04/23 04:46:15;;;;;;;4.50;4.20;;;;;;;8.10;100.00;100931.14;87211;271;24013;-76
2024/04/23 04:48:16;;;;;;;7.90;5.10;;;;;;;8.12;100.00;100931.92;87377;275;136885;-75
2024/04/23 04:50:17;;;;;;;4.80;4.50;;;;;;;8.15;100.00;100931.34;87400;271;23144;-77
2024/04/23 04:52:18;;;;;;;4.90;4.50;;;;;;;8.17;100.00;100933.77;87421;274;137577;-78
2024/04/23 04:54:18;;;;;;;5.10;4.80;;;;;;;8.19;100.00;100936.23;87584;269;23998;-78
2024/04/23 04:56:20;;;;;;;4.50;4.20;;;;;;;8.19;100.00;100939.90;87420;267;136455;-78
2024/04/23 04:58:20;;;;;;;5.10;4.80;;;;;;;8.19;100.00;100935.88;87557;270;22555;-76
2024/04/23 05:00:21;;;;;;;5.70;5.20;;;;;;;8.20;100.00;100940.00;87524;270;136593;-76
2024/04/23 05:02:22;;;;;;;3.90;3.40;;;;;;;8.20;100.00;100939.90;87737;268;22564;-80
2024/04/23 05:04:23;;;;;;;5.60;4.10;;;;;;;8.18;100.00;100940.05;87579;277;138237;-75
2024/04/23 05:06:24;;;;;;;4.60;4.30;;;;;;;8.19;100.00;100940.13;87726;275;22517;-79
2024/04/23 05:08:24;;;;;;;4.10;3.90;;;;;;;8.23;100.00;100942.70;87485;277;136701;-79
2024/04/23 05:10:25;;;;;;;4.10;3.90;;;;;;;8.31;100.00;100947.02;87529;271;22850;-78
2024/04/23 05:12:26;;;;;;;3.40;3.20;;;;;;;8.41;100.00;100947.05;87456;266;138802;-78
2024/04/23 05:14:27;;;;;;;4.70;4.20;;;;;;;8.54;100.00;100945.04;87645;275;24619;-80
2024/04/23 05:16:28;;;;;;;3.70;3.40;;;;;;;8.68;100.00;100948.04;87510;270;136774;-81
2024/04/23 05:18:30;;;;;;;4.00;3.70;;;;;;;8.82;100.00;100949.08;87709;270;22087;-82
2024/04/23 05:20:31;;;;;;;3.10;2.80;;;;;;;8.89;100.00;100942.63;87561;266;136773;-83
2024/04/23 05:22:32;;;;;;;3.30;2.90;;;;;;;8.92;100.00;100940.67;87852;266;23363;-80
2024/04/23 05:24:33;;;;;;;4.80;3.10;;;;;;;8.96;100.00;100941.31;87633;270;137967;-78
2024/04/23 05:26:34;;;;;;;3.40;3.00;;;;;;;9.01;100.00;100935.36;87465;266;25233;-80
2024/04/23 05:28:35;;;;;;;2.10;2.00;;;;;;;9.16;100.00;100932.89;87560;270;137829;-81
2024/04/23 05:32:54;;;;;;;2.50;2.40;;;;;;;9.93;100.00;100923.62;87674;270;137956;-80
2024/04/23 05:34:55;;;;;;;1.90;1.80;;;;;;;10.19;100.00;100923.59;87618;270;23090;-79
2024/04/23 05:36:56;;;;;;;2.90;2.00;;;;;;;10.41;100.00;100928.73;87133;278;136854;-78
2024/04/23 05:38:56;;;;;;;2.30;2.10;;;;;;;10.48;100.00;100931.57;87620;277;25350;-82
2024/04/23 05:40:57;;;;;;;2.00;1.90;;;;;;;10.43;100.00;100934.09;87729;270;138324;-81
2024/04/23 05:42:58;;;;;;;3.00;2.50;;;;;;;10.30;100.00;100937.02;87790;270;22572;-82
2024/04/23 05:44:59;;;;;;;2.50;2.30;;;;;;;10.20;100.00;100934.42;87668;269;138069;-79
2024/04/23 05:50:15;;;;;;;3.70;2.20;;;;;;;10.18;100.00;100933.65;85333;304;603452;-83
2024/04/23 05:53:12;;;;;;;2.80;2.60;;;;;;;10.27;100.00;100938.65;87391;269;137932;-80
2024/04/23 05:55:38;;;;;;;3.50;2.50;;;;;;;10.58;100.00;100941.42;87381;274;22523;-77
2024/04/23 05:57:39;;;;;;;4.70;2.50;;;;;;;10.94;100.00;100949.77;87278;274;137658;-75
2024/04/23 05:59:40;;;;;;;1.70;1.60;;;;;;;11.29;100.00;100951.45;87243;275;22769;-74
2024/04/23 06:01:41;;;;;;;2.40;2.20;;;;;;;11.70;100.00;100945.08;86648;275;136290;-78
2024/04/23 06:03:42;;;;;;;2.00;1.70;;;;;;;12.07;100.00;100948.92;86543;277;933488;-76
2024/04/23 06:05:42;;;;;;;2.00;1.90;;;;;;;12.47;100.00;100947.86;86957;280;136648;-75
2024/04/23 06:07:43;;;;;;;1.80;1.70;;;;;;;12.82;100.00;100950.73;87056;280;25240;-78
2024/04/23 06:09:44;;;;;;;2.30;1.90;;;;;;;13.02;100.00;100948.02;87347;269;136705;-77
2024/04/23 06:11:45;;;;;;;2.60;2.10;;;;;;;13.19;100.00;100952.65;87425;289;22688;-77
2024/04/23 06:13:47;;;;;;;3.20;2.30;;;;;;;13.44;100.00;100950.45;87348;276;136335;-77
2024/04/23 06:15:47;;;;;;;3.00;2.80;;;;;;;13.41;100.00;100949.80;87573;272;22560;-76
2024/04/23 06:17:48;;;;;;;1.90;1.80;;;;;;;13.20;100.00;100950.60;86931;272;136668;-76
2024/04/23 06:19:52;;;;;;;4.00;2.40;;;;;;;12.97;100.00;100945.34;87285;276;22649;-77
2024/04/23 06:21:52;;;;;;;2.60;2.40;;;;;;;12.76;100.00;100947.64;87361;269;138237;-77
2024/04/23 06:23:53;;;;;;;2.00;1.80;;;;;;;12.84;100.00;100947.87;87501;272;22567;-77
2024/04/23 06:25:55;;;;;;;3.00;2.60;;;;;;;13.03;100.00;100949.10;87500;278;135781;-75
2024/04/23 06:27:56;;;;;;;2.20;2.10;;;;;;;13.20;100.00;100952.73;87202;279;22885;-76
2024/04/23 06:30:08;;;;;;;2.70;2.60;;;;;;;13.21;100.00;100953.78;87976;281;136044;-78
2024/04/23 06:32:09;;;;;;;2.00;1.90;;;;;;;13.09;100.00;100952.09;89510;268;136367;-78
2024/04/23 06:34:10;;;;;;;1.40;1.30;;;;;;;13.02;100.00;100950.65;89846;268;22357;-78
2024/04/23 06:36:12;;;;;;;2.40;2.20;;;;;;;13.06;100.00;100955.31;89822;268;136182;-77
2024/04/23 06:38:12;;;;;;;2.10;1.90;;;;;;;13.19;100.00;100956.73;88937;268;22557;-78
2024/04/23 06:40:13;;;;;;;2.90;2.60;;;;;;;13.29;100.00;100954.77;87885;280;136034;-75
2024/04/23 06:42:14;;;;;;;3.00;1.80;;;;;;;13.40;100.00;100953.67;87547;279;22526;-76
2024/04/23 06:44:15;;;;;;;2.00;1.90;;;;;;;13.66;100.00;100949.82;87353;275;136952;-75
2024/04/23 06:46:15;;;;;;;2.50;1.80;;;;;;;13.88;100.00;100947.84;87273;280;22577;-77
2024/04/23 06:48:17;;;;;;;2.70;1.80;;;;;;;13.89;100.00;100947.91;87165;272;136071;-75
2024/04/23 06:50:17;;;;;;;3.20;1.90;;;;;;;14.03;100.00;100953.30;87457;268;22640;-75
2024/04/23 06:52:18;;;;;;;2.20;1.90;;;;;;;14.06;100.00;100953.44;87191;268;136395;-76
2024/04/23 06:54:19;;;;;;;1.60;1.50;;;;;;;13.96;100.00;100956.72;87368;280;22585;-76
2024/04/23 06:56:19;;;;;;;2.10;1.80;;;;;;;13.84;100.00;100954.36;87068;279;136259;-80
2024/04/23 06:58:20;;;;;;;2.00;1.40;;;;;;;13.84;100.00;100956.88;87278;279;22591;-72
2024/04/23 07:00:21;;;;;;;2.10;1.90;;;;;;;13.99;100.00;100956.95;86947;271;136971;-64
2024/04/23 07:02:21;;;;;;;6.30;2.00;;;;;;;14.20;100.00;100955.92;86972;271;22572;-69
2024/04/23 07:04:22;;;;;;;1.60;1.60;;;;;;;14.44;100.00;100958.33;86996;268;136236;-68
2024/04/23 07:06:23;;;;;;;1.20;1.10;;;;;;;14.49;100.00;100958.42;86997;271;24170;-75
2024/04/23 07:08:24;;;;;;;2.30;2.10;;;;;;;14.34;100.00;100960.04;87295;269;136031;-66
2024/04/23 07:10:25;;;;;;;1.80;1.50;;;;;;;14.14;100.00;100958.61;86972;281;22749;-64
2024/04/23 07:12:25;;;;;;;1.90;1.80;;;;;;;13.96;100.00;100960.59;86997;269;135733;-66
2024/04/23 07:14:26;;;;;;;2.50;1.70;;;;;;;13.70;100.00;100965.25;87113;280;22567;-68
2024/04/23 07:16:27;;;;;;;4.40;2.10;;;;;;;13.42;100.00;100967.65;87154;280;135779;-67
2024/04/23 07:18:27;;;;;;;2.40;2.20;;;;;;;13.20;100.00;100965.09;87182;273;22587;-67
2024/04/23 07:20:28;;;;;;;2.10;1.40;;;;;;;13.04;100.00;100961.60;87047;269;137321;-66
2024/04/23 07:22:29;;;;;;;2.40;2.20;;;;;;;12.99;100.00;100962.81;87221;268;22645;-61
2024/04/23 07:24:29;;;;;;;2.90;2.60;;;;;;;12.94;100.00;100963.08;87068;272;136066;-69
2024/04/23 07:26:30;;;;;;;2.60;2.40;;;;;;;12.83;100.00;100960.08;87064;273;25107;-65
2024/04/23 07:28:31;;;;;;;1.70;1.60;;;;;;;12.80;100.00;100960.58;86931;276;136268;-66
2024/04/23 07:30:33;;;;;;;1.80;1.70;;;;;;;12.83;100.00;100965.27;87023;273;22563;-62
2024/04/23 07:32:34;;;;;;;1.90;1.80;;;;;;;12.88;100.00;100963.83;86929;273;136961;-63
2024/04/23 07:34:35;;;;;;;3.30;2.60;;;;;;;12.89;100.00;100963.35;87156;265;22573;-70
2024/04/23 07:36:36;;;;;;;3.50;2.30;;;;;;;12.85;100.00;100965.03;87092;269;135728;-70
2024/04/23 07:38:36;;;;;;;2.00;1.80;;;;;;;12.83;100.00;100965.97;87034;280;22562;-68
2024/04/23 07:40:40;;;;;;;3.60;3.30;;;;;;;12.81;100.00;100959.30;86993;273;135816;-71
2024/04/23 07:42:41;;;;;;;3.00;2.70;;;;;;;12.82;100.00;100956.64;87360;273;24173;-67
2024/04/23 07:44:41;;;;;;;3.80;2.90;;;;;;;12.80;100.00;100956.84;86939;277;137721;-69
2024/04/23 07:46:42;;;;;;;4.00;3.70;;;;;;;12.80;100.00;100956.38;87121;264;23864;-65
2024/04/23 07:48:43;;;;;;;3.30;2.70;;;;;;;12.71;100.00;100958.13;87028;272;137371;-67
2024/04/23 07:50:44;;;;;;;1.90;1.80;;;;;;;12.48;100.00;100956.28;87071;273;24031;-70
2024/04/23 07:52:45;;;;;;;4.60;2.50;;;;;;;12.24;100.00;100954.96;86890;273;136307;-71
2024/04/23 07:54:50;;;;;;;2.60;2.50;;;;;;;12.03;100.00;100948.53;87031;273;24001;-72
2024/04/23 07:56:50;;;;;;;;;;;;;;;11.91;100.00;100946.98;87163;271;137441;-70
2024/04/23 07:58:51;;;;;;;2.60;2.40;;;;;;;11.91;100.00;100944.60;87262;270;24177;-70
2024/04/23 08:00:52;;;;;;;2.90;2.40;;;;;;;12.00;100.00;100943.89;87021;275;137209;-70
2024/04/23 08:02:54;;;;;;;3.30;3.00;;;;;;;12.10;100.00;100939.44;87081;272;22651;-72
2024/04/23 08:04:54;;;;;;;2.40;2.30;;;;;;;12.22;100.00;100936.68;86892;271;137399;-71
2024/04/23 08:06:55;;;;;;;2.20;2.10;;;;;;;12.36;100.00;100936.27;87093;275;22546;-72
2024/04/23 08:08:56;;;;;;;2.70;2.60;;;;;;;12.48;100.00;100935.98;86900;273;136427;-72
2024/04/23 08:10:57;;;;;;;3.00;2.80;;;;;;;12.54;100.00;100933.11;87057;272;22598;-71
2024/04/23 08:12:57;;;;;;;2.90;2.70;;;;;;;12.52;100.00;100934.48;87112;271;136238;-73
2024/04/23 08:14:58;;;;;;;2.90;2.70;;;;;;;12.48;100.00;100934.19;87014;277;25348;-75
2024/04/23 08:16:59;;;;;;;2.60;2.40;;;;;;;12.46;100.00;100929.34;86890;281;136321;-69
2024/04/23 08:19:00;;;;;;;2.30;2.20;;;;;;;12.45;100.00;100928.67;87044;280;25194;-72
2024/04/23 08:21:05;;;;;;;2.00;1.90;;;;;;;12.47;100.00;100931.33;86978;268;136235;-74
2024/04/23 08:23:06;;;;;;;2.00;1.80;;;;;;;12.50;100.00;100928.77;87203;271;22564;-79
2024/04/23 08:25:09;;;;;;;2.60;2.50;;;;;;;12.54;100.00;100923.89;86976;279;137681;-78
2024/04/23 08:27:10;;;;;;;3.40;3.10;;;;;;;12.62;100.00;100919.17;87043;273;25204;-70
2024/04/23 08:29:10;;;;;;;3.00;2.80;;;;;;;12.73;100.00;100916.05;87006;271;138303;-74
2024/04/23 08:31:11;;;;;;;1.50;1.40;;;;;;;12.82;100.00;100915.61;87079;268;25235;-74
2024/04/23 08:33:12;;;;;;;1.90;1.80;;;;;;;12.94;100.00;100916.48;86939;267;137167;-73
2024/04/23 08:35:13;;;;;;;2.30;2.20;;;;;;;13.03;100.00;100916.95;87067;271;24026;-74
2024/04/23 08:37:15;;;;;;;4.20;3.10;;;;;;;13.13;100.00;100916.35;86955;272;135966;-72
2024/04/23 08:39:16;;;;;;;2.30;2.30;;;;;;;13.19;100.00;100913.89;87122;270;25233;-70
2024/04/23 08:41:18;;;;;;;2.80;2.60;;;;;;;13.26;100.00;100913.14;87061;275;136253;-73
2024/04/23 08:43:30;;;;;;;2.20;2.10;;;;;;;13.30;100.00;100915.25;87464;268;22543;-74
2024/04/23 08:45:34;;;;;;;4.50;2.30;;;;;;;13.36;100.00;100917.26;87352;272;136555;-73
2024/04/23 08:47:36;;;;;;;1.30;1.30;;;;;;;13.39;100.00;100915.05;87446;272;22983;-73
2024/04/23 08:49:39;;;;;;;1.60;1.50;;;;;;;13.36;100.00;100914.98;86901;276;137199;-72
2024/04/23 08:51:40;;;;;;;1.80;1.70;;;;;;;13.33;100.00;100915.45;87493;273;22557;-74
2024/04/23 08:53:41;;;;;;;2.00;1.50;;;;;;;13.25;100.00;100921.77;87283;277;137422;-71
2024/04/23 08:55:44;;;;;;;3.30;2.30;;;;;;;13.17;100.00;100919.89;87079;280;22762;-71
2024/04/23 08:57:45;;;;;;;3.30;3.10;;;;;;;13.17;100.00;100923.11;87051;268;137129;-72
2024/04/23 08:59:47;;;;;;;1.90;1.80;;;;;;;13.20;100.00;100916.05;87024;271;22573;-70
2024/04/23 09:01:49;;;;;;;2.40;2.30;;;;;;;13.24;100.00;100913.41;86800;281;136841;-73
2024/04/23 09:03:53;;;;;;;2.20;1.90;;;;;;;13.28;100.00;100913.33;87046;272;23694;-70
2024/04/23 09:05:54;;;;;;;3.70;2.20;;;;;;;13.29;100.00;100912.47;87071;270;137922;-73
2024/04/23 09:07:55;;;;;;;1.80;1.70;;;;;;;13.28;100.00;100915.55;87003;273;22590;-74
2024/04/23 09:09:57;;;;;;;2.80;2.60;;;;;;;13.21;100.00;100914.20;86989;272;136639;-73
2024/04/23 09:12:00;;;;;;;2.00;1.70;;;;;;;13.19;100.00;100916.65;87180;272;22722;-72
2024/04/23 09:14:01;;;;;;;2.00;1.90;;;;;;;13.18;100.00;100923.67;87086;280;136086;-73
2024/04/23 09:16:02;;;;;;;4.90;2.80;;;;;;;13.22;100.00;100920.15;87086;280;25467;-72
2024/04/23 09:18:05;;;;;;;4.30;2.50;;;;;;;13.31;100.00;100917.08;86963;268;22659;-72
2024/04/23 09:20:06;;;;;;;3.30;2.20;;;;;;;13.37;100.00;100917.27;87287;276;136345;-71
2024/04/23 09:22:07;;;;;;;3.40;3.30;;;;;;;13.34;100.00;100913.11;87091;267;23665;-72
2024/04/23 09:24:08;;;;;;;3.60;2.50;;;;;;;13.29;100.00;100914.36;86893;271;138821;-71
2024/04/23 09:26:10;;;;;;;3.40;2.70;;;;;;;13.27;100.00;100910.27;86985;273;22602;-73
2024/04/23 09:28:20;;;;;;;3.50;3.30;;;;;;;13.30;100.00;100905.31;87216;277;137647;-74
2024/04/23 09:30:25;;;;;;;4.80;3.10;;;;;;;13.38;100.00;100904.26;87136;271;22544;-74
2024/04/23 09:32:27;;;;;;;1.80;1.80;;;;;;;13.47;100.00;100904.61;86970;272;136411;-74